createdAt,value
2023-05-05T00:02:43.750Z,10.43
2023-05-05T00:05:47.808Z,8.98
2023-05-05T00:08:51.765Z,9.32
2023-05-05T00:11:55.458Z,9.40
2023-05-05T00:15:00.304Z,8.88
2023-05-05T00:18:04.097Z,8.77
2023-05-05T00:21:07.831Z,10.27
2023-05-05T00:24:11.526Z,9.65
2023-05-05T00:27:15.147Z,8.98
2023-05-05T00:30:20.396Z,9.03
2023-05-05T00:33:23.928Z,9.07
2023-05-05T00:36:28.487Z,10.90
2023-05-05T00:39:33.287Z,9.43
2023-05-05T00:42:42.518Z,11.52
2023-05-05T00:45:48.223Z,11.85
2023-05-05T00:48:52.953Z,8.68
2023-05-05T00:51:57.166Z,11.37
2023-05-05T00:55:01.395Z,11.55
2023-05-05T00:58:05.474Z,7.88
2023-05-05T01:01:13.594Z,12.47
2023-05-05T01:04:17.195Z,9.80
2023-05-05T01:07:37.445Z,11.73
2023-05-05T01:10:47.393Z,8.98
2023-05-05T01:14:04.532Z,7.78
2023-05-05T01:17:18.325Z,10.25
2023-05-05T01:20:30.646Z,9.05
2023-05-05T01:24:04.218Z,11.20
2023-05-05T01:27:42.932Z,13.82
2023-05-05T01:31:22.893Z,10.38
2023-05-05T01:34:34.697Z,8.80
2023-05-05T01:37:50.558Z,8.60
2023-05-05T01:41:04.819Z,8.65
2023-05-05T01:44:11.962Z,8.95
2023-05-05T01:47:20.224Z,10.45
2023-05-05T01:50:30.090Z,8.18
2023-05-05T01:53:36.476Z,10.18
2023-05-05T01:56:44.140Z,10.00
2023-05-05T01:59:48.086Z,8.55
2023-05-05T02:02:56.160Z,9.88
2023-05-05T02:06:03.924Z,12.40
2023-05-05T02:09:11.850Z,11.02
2023-05-05T02:12:17.793Z,8.65
2023-05-05T02:15:24.860Z,8.85
2023-05-05T02:18:28.984Z,8.75
2023-05-05T02:21:35.308Z,10.82
2023-05-05T02:24:39.167Z,10.40
2023-05-05T02:27:46.263Z,8.33
2023-05-05T02:31:00.686Z,7.43
2023-05-05T02:34:08.451Z,8.10
2023-05-05T02:37:22.507Z,9.60
2023-05-05T02:40:35.390Z,9.57
2023-05-05T02:43:44.779Z,8.40
2023-05-05T02:46:49.357Z,7.60
2023-05-05T02:49:53.280Z,8.55
2023-05-05T02:52:59.619Z,9.95
2023-05-05T02:56:17.581Z,10.98
2023-05-05T02:59:37.390Z,10.93
2023-05-05T03:02:55.230Z,8.20
2023-05-05T03:06:12.459Z,9.70
2023-05-05T03:09:28.406Z,15.30
2023-05-05T03:12:42.969Z,11.40
2023-05-05T03:15:58.547Z,10.60
2023-05-05T03:19:05.431Z,14.63
2023-05-05T03:22:11.053Z,9.15
2023-05-05T03:25:20.135Z,8.40
2023-05-05T03:28:24.644Z,8.70
2023-05-05T03:31:29.019Z,9.63
2023-05-05T03:34:37.721Z,12.52
2023-05-05T03:37:42.269Z,14.43
2023-05-05T03:40:48.018Z,12.67
2023-05-05T03:43:55.860Z,12.75
2023-05-05T03:46:59.774Z,9.98
2023-05-05T03:50:05.501Z,9.88
2023-05-05T03:53:09.509Z,8.38
2023-05-05T03:56:14.758Z,10.00
2023-05-05T03:59:18.530Z,8.77
2023-05-05T04:02:22.440Z,10.77
2023-05-05T04:05:27.356Z,8.57
2023-05-05T04:08:31.231Z,9.88
2023-05-05T04:11:36.673Z,10.30
2023-05-05T04:14:40.696Z,8.45
2023-05-05T04:17:45.553Z,9.80
2023-05-05T04:20:49.268Z,7.15
2023-05-05T04:23:53.482Z,10.63
2023-05-05T04:26:59.749Z,8.43
2023-05-05T04:30:06.739Z,7.85
2023-05-05T04:33:12.194Z,9.50
2023-05-05T04:36:15.802Z,6.90
2023-05-05T04:39:19.476Z,6.32
2023-05-05T04:42:24.581Z,7.93
2023-05-05T04:45:28.437Z,11.93
2023-05-05T04:48:32.181Z,7.28
2023-05-05T04:51:36.106Z,7.13
2023-05-05T04:54:39.542Z,6.43
2023-05-05T04:57:44.713Z,10.68
2023-05-05T05:00:48.119Z,9.82
2023-05-05T05:03:52.241Z,6.67
2023-05-05T05:06:56.896Z,6.88
2023-05-05T05:10:03.090Z,8.18
2023-05-05T05:13:08.329Z,8.93
2023-05-05T05:16:12.990Z,7.72
2023-05-05T05:19:16.975Z,7.25
2023-05-05T05:22:20.931Z,6.40
2023-05-05T05:25:24.757Z,6.70
2023-05-05T05:28:30.872Z,8.63
2023-05-05T05:31:36.852Z,6.88
2023-05-05T05:34:40.920Z,7.20
2023-05-05T05:37:47.642Z,7.70
2023-05-05T05:40:52.006Z,6.90
2023-05-05T05:43:56.957Z,6.13
2023-05-05T05:47:00.992Z,5.80
2023-05-05T05:50:07.047Z,8.82
2023-05-05T05:53:11.804Z,8.43
2023-05-05T05:56:15.807Z,4.60
2023-05-05T05:59:21.350Z,6.13
2023-05-05T06:02:26.456Z,6.07
2023-05-05T06:05:30.452Z,6.97
2023-05-05T06:08:34.221Z,6.55
2023-05-05T06:11:38.563Z,6.00
2023-05-05T06:14:43.965Z,6.40
2023-05-05T06:17:47.941Z,7.85
2023-05-05T06:20:52.328Z,9.48
2023-05-05T06:23:58.065Z,5.93
2023-05-05T06:27:02.292Z,7.53
2023-05-05T06:30:09.932Z,6.10
2023-05-05T06:33:13.677Z,6.10
2023-05-05T06:36:17.567Z,7.47
2023-05-05T06:39:20.949Z,6.03
2023-05-05T06:42:24.738Z,4.70
2023-05-05T06:45:31.867Z,5.27
2023-05-05T06:48:36.247Z,5.53
2023-05-05T06:51:41.538Z,4.80
2023-05-05T06:54:46.309Z,7.07
2023-05-05T06:57:50.214Z,9.23
2023-05-05T07:00:55.288Z,6.82
2023-05-05T07:03:59.108Z,5.90
2023-05-05T07:07:02.901Z,3.53
2023-05-05T07:10:09.638Z,4.40
2023-05-05T07:13:13.692Z,4.40
2023-05-05T07:16:18.776Z,6.47
2023-05-05T07:19:22.313Z,4.70
2023-05-05T07:22:26.043Z,5.07
2023-05-05T07:25:29.876Z,3.67
2023-05-05T07:28:33.572Z,3.13
2023-05-05T07:31:38.538Z,3.75
2023-05-05T07:34:42.304Z,4.20
2023-05-05T07:37:46.091Z,4.47
2023-05-05T07:40:50.081Z,4.15
2023-05-05T07:43:53.647Z,2.60
2023-05-05T07:46:58.706Z,3.47
2023-05-05T07:50:02.929Z,2.85
2023-05-05T07:53:14.612Z,2.25
2023-05-05T07:56:19.341Z,4.72
2023-05-05T07:59:24.783Z,2.97
2023-05-05T08:02:29.903Z,2.55
2023-05-05T08:05:33.710Z,3.13
2023-05-05T08:08:38.021Z,2.87
2023-05-05T08:11:41.704Z,2.33
2023-05-05T08:14:45.276Z,4.15
2023-05-05T08:17:52.682Z,3.50
2023-05-05T08:20:56.187Z,2.65
2023-05-05T08:23:59.888Z,3.92
2023-05-05T08:27:03.669Z,2.10
2023-05-05T08:30:10.031Z,3.55
2023-05-05T08:33:15.005Z,2.40
2023-05-05T08:36:18.640Z,4.20
2023-05-05T08:39:22.184Z,2.43
2023-05-05T08:42:37.101Z,2.58
2023-05-05T08:45:43.175Z,3.25
2023-05-05T08:48:56.004Z,2.80
2023-05-05T08:52:06.289Z,2.67
2023-05-05T08:55:16.416Z,2.95
2023-05-05T08:58:20.489Z,3.17
2023-05-05T09:01:24.630Z,2.15
2023-05-05T09:04:30.357Z,25.73
2023-05-05T09:07:35.997Z,4.78
2023-05-05T09:10:42.587Z,3.83
2023-05-05T09:13:47.060Z,11.45
2023-05-05T09:16:50.811Z,3.35
2023-05-05T09:20:04.430Z,4.30
2023-05-05T09:23:13.796Z,3.75
2023-05-05T09:26:17.462Z,3.13
2023-05-05T09:29:23.315Z,3.58
2023-05-05T09:32:29.132Z,4.97
2023-05-05T09:35:51.857Z,14.90
2023-05-05T09:39:07.413Z,3.15
2023-05-05T09:42:19.613Z,4.18
2023-05-05T09:45:28.302Z,3.22
2023-05-05T09:48:33.528Z,4.13
2023-05-05T09:51:38.811Z,4.32
2023-05-05T09:54:43.674Z,3.13
2023-05-05T09:57:47.510Z,4.18
2023-05-05T10:00:51.939Z,2.85
2023-05-05T10:03:55.633Z,5.18
2023-05-05T10:07:00.830Z,3.63
2023-05-05T10:10:07.175Z,5.85
2023-05-05T10:13:12.964Z,2.50
2023-05-05T10:16:21.078Z,3.33
2023-05-05T10:19:28.629Z,3.03
2023-05-05T10:22:36.485Z,2.45
2023-05-05T10:25:52.020Z,2.47
2023-05-05T10:28:57.916Z,3.93
2023-05-05T10:32:33.436Z,2.83
2023-05-05T10:35:41.674Z,2.95
2023-05-05T10:38:47.864Z,3.63
2023-05-05T10:41:53.340Z,4.40
2023-05-05T10:44:57.318Z,2.83
2023-05-05T10:48:07.998Z,2.97
2023-05-05T10:51:38.681Z,2.47
2023-05-05T10:54:53.996Z,2.43
2023-05-05T10:57:57.526Z,4.10
2023-05-05T11:01:01.313Z,4.75
2023-05-05T11:04:21.883Z,2.75
2023-05-05T11:07:27.047Z,3.03
2023-05-05T11:10:46.151Z,5.55
2023-05-05T11:14:22.984Z,3.45
2023-05-05T11:17:46.540Z,2.20
2023-05-05T11:21:18.415Z,4.70
2023-05-05T11:24:30.401Z,3.55
2023-05-05T11:28:09.589Z,3.05
2023-05-05T11:31:20.889Z,2.90
2023-05-05T11:34:29.361Z,4.97
2023-05-05T11:37:33.746Z,2.05
2023-05-05T11:40:45.591Z,3.33
2023-05-05T11:43:51.020Z,4.35
2023-05-05T11:47:32.862Z,2.17
2023-05-05T11:50:37.136Z,2.47
2023-05-05T11:53:44.400Z,2.63
2023-05-05T11:56:52.001Z,2.28
2023-05-05T12:00:00.493Z,7.70
2023-05-05T12:03:05.526Z,3.40
2023-05-05T12:06:09.825Z,2.22
2023-05-05T12:09:17.234Z,3.15
2023-05-05T12:12:21.644Z,3.25
2023-05-05T12:15:34.402Z,2.53
2023-05-05T12:18:37.866Z,2.63
2023-05-05T12:21:41.618Z,2.17
2023-05-05T12:24:45.050Z,3.60
2023-05-05T12:27:54.124Z,2.83
2023-05-05T12:30:59.524Z,2.17
2023-05-05T12:34:04.147Z,1.80
2023-05-05T12:37:07.674Z,2.65
2023-05-05T12:40:46.249Z,2.92
2023-05-05T12:43:55.828Z,2.00
2023-05-05T12:47:01.531Z,2.07
2023-05-05T12:50:05.593Z,2.10
2023-05-05T12:53:09.943Z,1.77
2023-05-05T12:56:37.566Z,2.42
2023-05-05T12:59:41.237Z,3.05
2023-05-05T13:02:46.436Z,4.30
2023-05-05T13:05:50.332Z,2.10
2023-05-05T13:08:53.715Z,1.67
2023-05-05T13:11:58.128Z,2.97
2023-05-05T13:15:01.516Z,2.72
2023-05-05T13:18:06.984Z,2.67
2023-05-05T13:21:10.401Z,2.57
2023-05-05T13:24:26.173Z,2.97
2023-05-05T13:27:35.337Z,1.83
2023-05-05T13:30:39.353Z,3.20
2023-05-05T13:33:44.265Z,10.10
2023-05-05T13:36:47.927Z,1.77
2023-05-05T13:39:51.541Z,2.55
2023-05-05T13:42:55.524Z,2.53
2023-05-05T13:46:08.748Z,3.53
2023-05-05T13:49:21.627Z,2.20
2023-05-05T13:52:24.991Z,2.47
2023-05-05T13:55:30.064Z,2.05
2023-05-05T13:58:34.509Z,5.63
2023-05-05T14:01:39.696Z,2.85
2023-05-05T14:04:44.524Z,2.93
2023-05-05T14:07:48.318Z,2.33
2023-05-05T14:10:52.257Z,2.50
2023-05-05T14:13:56.088Z,2.45
2023-05-05T14:16:59.485Z,3.15
2023-05-05T14:20:05.546Z,5.13
2023-05-05T14:23:08.943Z,2.90
2023-05-05T14:26:12.957Z,3.78
2023-05-05T14:29:16.376Z,10.70
2023-05-05T14:32:20.376Z,2.95
2023-05-05T14:35:25.332Z,2.10
2023-05-05T14:38:29.376Z,4.33
2023-05-05T14:41:33.090Z,4.13
2023-05-05T14:44:36.737Z,2.67
2023-05-05T14:47:40.181Z,1.88
2023-05-05T14:50:46.358Z,3.70
2023-05-05T14:53:49.866Z,2.67
2023-05-05T14:56:53.718Z,3.90
2023-05-05T14:59:57.156Z,2.40
2023-05-05T15:03:01.088Z,2.55
2023-05-05T15:06:06.328Z,3.90
2023-05-05T15:09:10.306Z,8.53
2023-05-05T15:12:13.710Z,10.75
2023-05-05T15:15:17.560Z,2.40
2023-05-05T15:18:21.155Z,5.00
2023-05-05T15:21:26.943Z,3.30
2023-05-05T15:24:30.463Z,3.93
2023-05-05T15:27:36.097Z,3.60
2023-05-05T15:30:39.914Z,1.95
2023-05-05T15:33:45.453Z,5.38
2023-05-05T15:36:50.800Z,3.67
2023-05-05T15:39:55.380Z,3.13
2023-05-05T15:42:59.230Z,1.80
2023-05-05T15:46:03.306Z,2.53
2023-05-05T15:49:06.738Z,2.45
2023-05-05T15:52:12.839Z,2.90
2023-05-05T15:55:16.250Z,4.83
2023-05-05T15:58:20.169Z,5.05
2023-05-05T16:01:23.852Z,3.97
2023-05-05T16:04:27.609Z,4.57
2023-05-05T16:07:32.466Z,8.00
2023-05-05T16:10:36.323Z,4.77
2023-05-05T16:13:39.819Z,3.65
2023-05-05T16:16:43.904Z,3.17
2023-05-05T16:19:47.426Z,1.90
2023-05-05T16:22:52.903Z,3.10
2023-05-05T16:25:56.301Z,2.17
2023-05-05T16:29:00.479Z,2.55
2023-05-05T16:32:04.657Z,1.88
2023-05-05T16:35:09.387Z,4.28
2023-05-05T16:38:14.932Z,2.30
2023-05-05T16:41:18.803Z,2.53
2023-05-05T16:44:22.199Z,3.10
2023-05-05T16:47:27.216Z,2.70
2023-05-05T16:50:30.706Z,3.88
2023-05-05T16:53:35.843Z,2.35
2023-05-05T16:56:39.243Z,2.87
2023-05-05T16:59:43.152Z,2.55
2023-05-05T17:02:46.580Z,3.50
2023-05-05T17:05:51.260Z,2.90
2023-05-05T17:08:56.128Z,3.55
2023-05-05T17:11:59.872Z,2.60
2023-05-05T17:15:04.191Z,3.20
2023-05-05T17:18:09.323Z,3.92
2023-05-05T17:21:12.817Z,3.38
2023-05-05T17:24:17.965Z,3.20
2023-05-05T17:27:21.370Z,2.87
2023-05-05T17:30:25.728Z,3.25
2023-05-05T17:33:29.152Z,4.82
2023-05-05T17:36:33.471Z,2.90
2023-05-05T17:39:38.519Z,2.88
2023-05-05T17:42:42.165Z,6.20
2023-05-05T17:45:46.733Z,3.63
2023-05-05T17:48:51.089Z,4.03
2023-05-05T17:51:54.624Z,3.88
2023-05-05T17:54:59.934Z,3.72
2023-05-05T17:58:03.522Z,5.03
2023-05-05T18:01:07.360Z,4.10
2023-05-05T18:04:11.037Z,4.40
2023-05-05T18:07:15.824Z,8.93
2023-05-05T18:10:20.976Z,6.70
2023-05-05T18:13:24.650Z,7.23
2023-05-05T18:16:28.136Z,5.15
2023-05-05T18:19:32.057Z,8.32
2023-05-05T18:22:36.022Z,5.63
2023-05-05T18:25:41.502Z,7.37
2023-05-05T18:28:44.995Z,4.50
2023-05-05T18:31:51.671Z,5.47
2023-05-05T18:34:55.460Z,6.57
2023-05-05T18:37:59.270Z,4.83
2023-05-05T18:41:04.083Z,4.47
2023-05-05T18:44:08.285Z,5.05
2023-05-05T18:47:11.781Z,6.00
2023-05-05T18:50:15.663Z,5.88
2023-05-05T18:53:19.102Z,6.28
2023-05-05T18:56:24.248Z,5.60
2023-05-05T18:59:27.670Z,5.97
2023-05-05T19:02:31.569Z,6.28
2023-05-05T19:05:35.040Z,5.32
2023-05-05T19:08:38.798Z,5.50
2023-05-05T19:11:43.795Z,4.50
2023-05-05T19:14:47.547Z,4.95
2023-05-05T19:17:51.286Z,5.30
2023-05-05T19:20:55.185Z,4.88
2023-05-05T19:23:58.683Z,6.77
2023-05-05T19:27:04.291Z,4.95
2023-05-05T19:30:09.964Z,3.97
2023-05-05T19:33:13.954Z,5.03
2023-05-05T19:36:17.419Z,4.78
2023-05-05T19:39:21.064Z,4.28
2023-05-05T19:42:26.196Z,3.42
2023-05-05T19:45:30.074Z,4.85
2023-05-05T19:48:33.577Z,3.60
2023-05-05T19:51:37.367Z,6.13
2023-05-05T19:54:41.343Z,6.77
2023-05-05T19:57:46.765Z,6.90
2023-05-05T20:00:50.169Z,7.10
2023-05-05T20:03:56.994Z,3.93
2023-05-05T20:07:00.691Z,7.68
2023-05-05T20:10:04.657Z,6.97
2023-05-05T20:13:09.471Z,5.13
2023-05-05T20:16:14.795Z,5.55
2023-05-05T20:19:19.295Z,6.43
2023-05-05T20:22:23.044Z,6.55
2023-05-05T20:25:27.020Z,5.20
2023-05-05T20:28:33.029Z,4.68
2023-05-05T20:31:36.429Z,5.65
2023-05-05T20:34:40.391Z,6.07
2023-05-05T20:37:45.356Z,6.63
2023-05-05T20:40:49.210Z,9.40
2023-05-05T20:43:54.304Z,6.45
2023-05-05T20:46:58.197Z,5.32
2023-05-05T20:50:01.739Z,5.07
2023-05-05T20:53:06.153Z,6.25
2023-05-05T20:56:09.895Z,5.40
2023-05-05T20:59:14.981Z,7.55
2023-05-05T21:02:18.432Z,5.47
2023-05-05T21:05:22.776Z,8.43
2023-05-05T21:08:27.029Z,10.48
2023-05-05T21:11:30.785Z,4.95
2023-05-05T21:14:35.872Z,5.00
2023-05-05T21:17:39.691Z,4.68
2023-05-05T21:20:43.124Z,4.80
2023-05-05T21:23:47.962Z,7.30
2023-05-05T21:26:51.344Z,5.30
2023-05-05T21:29:56.566Z,4.97
2023-05-05T21:33:00.024Z,7.32
2023-05-05T21:36:04.207Z,6.47
2023-05-05T21:39:07.640Z,6.15
2023-05-05T21:42:11.521Z,5.22
2023-05-05T21:45:16.309Z,5.80
2023-05-05T21:48:20.169Z,7.22
2023-05-05T21:51:23.854Z,4.28
2023-05-05T21:54:27.739Z,5.97
2023-05-05T21:57:31.104Z,5.37
2023-05-05T22:00:36.486Z,5.28
2023-05-05T22:03:39.932Z,6.85
2023-05-05T22:06:43.626Z,6.27
2023-05-05T22:09:47.056Z,6.22
2023-05-05T22:12:51.048Z,9.25
2023-05-05T22:15:55.890Z,5.40
2023-05-05T22:18:59.543Z,4.63
2023-05-05T22:22:03.011Z,7.35
2023-05-05T22:25:08.149Z,6.10
2023-05-05T22:28:12.100Z,7.13
2023-05-05T22:31:17.530Z,6.43
2023-05-05T22:34:21.835Z,5.60
2023-05-05T22:37:25.956Z,7.37
2023-05-05T22:40:29.395Z,5.53
2023-05-05T22:43:33.417Z,5.80
2023-05-05T22:46:38.269Z,5.55
2023-05-05T22:49:42.110Z,4.25
2023-05-05T22:52:45.717Z,8.70
2023-05-05T22:55:49.595Z,4.70
2023-05-05T22:58:53.105Z,5.13
2023-05-05T23:01:58.435Z,5.40
2023-05-05T23:05:01.928Z,5.22
2023-05-05T23:08:06.695Z,5.80
2023-05-05T23:11:10.383Z,10.77
2023-05-05T23:14:14.264Z,5.47
2023-05-05T23:17:19.657Z,8.65
2023-05-05T23:20:23.640Z,4.80
2023-05-05T23:23:27.222Z,5.25
2023-05-05T23:26:31.148Z,5.90
2023-05-05T23:29:34.546Z,5.07
2023-05-05T23:32:39.750Z,5.45
2023-05-05T23:35:45.530Z,5.40
2023-05-05T23:38:49.367Z,5.53
2023-05-05T23:41:52.858Z,5.15
2023-05-05T23:44:56.534Z,6.07
2023-05-05T23:48:01.576Z,6.00
2023-05-05T23:51:05.513Z,4.45
2023-05-05T23:54:08.902Z,6.35
2023-05-05T23:57:12.801Z,5.70
